ジッダ の空港の天気 - METARとTAF

キング・アブドゥルアズィーズ国際空港(ジッダ) ( OEJN / JED ) - サウジアラビア ジッダ
飛行場実況気象(Metar)
観測時間10/16 09:00 AST (10/16 06:00 UTC)
風向・風速静穏 0m/s
視程10km以上
天気現象
なし
気温30℃
湿度66%
気圧1010hPa
METAROEJN 160600Z 00000KT CAVOK 30/23 Q1010 NOSIG
過去の天気等 Google飛行場航空写真 Wunderground天気予報

過去48時間のMETAR

飛行場予報(TAF)
発表時間: 10/16 08:00 AST (10/16 05:00 UTC)
予報対象時間: 16日9時 AST ~ 17日15時 AST
風向・風速西南西 7m/s
視程10km以上
なし
16日18時 AST ~ 16日20時 AST に徐々に
風向・風速北 4m/s
視程8000m
なし
TAF OEJN 160500Z 1606/1712 25014KT CAVOK
BECMG 1615/1617 35008KT 8000 NSC